Time;durP1;ratioP1;P1;durP2;ratioP2;P2;SDS_P1;SDS_P2;PMS_P1;PMS_P2;Temp;Humidity;BMP_temperature;BMP_pressure;BME280_temperature;BME280_humidity;BME280_pressure;Samples;Min_cycle;Max_cycle;Signal;HPM_P1;HPM_P2
2023/06/02 00:02:23;;;;;;;21.20;14.07;;;436.10;2355.20;;;;;;5029291;28;20037;-55
2023/06/02 00:04:52;;;;;;;20.30;15.18;;;436.10;2355.20;;;;;;5029554;28;20025;-55
2023/06/02 00:07:18;;;;;;;18.25;15.23;;;436.10;2355.20;;;;;;5028744;28;20049;-54
2023/06/02 00:09:44;;;;;;;17.17;14.52;;;436.10;2355.20;;;;;;5029100;28;20511;-54
2023/06/02 00:12:13;;;;;;;18.52;14.98;;;436.10;1971.20;;;;;;5029400;28;20131;-55
2023/06/02 00:14:42;;;;;;;19.75;15.10;;;436.10;2201.60;;;;;;5028893;28;20013;-53
2023/06/02 00:17:08;;;;;;;20.70;13.65;;;436.00;2355.20;;;;;;5029097;28;20048;-54
2023/06/02 00:19:35;;;;;;;16.52;13.07;;;435.90;2355.20;;;;;;5029171;28;20422;-54
2023/06/02 00:22:02;;;;;;;18.30;14.68;;;435.80;2355.20;;;;;;5029005;28;20022;-54
2023/06/02 00:24:27;;;;;;;17.63;14.77;;;435.60;2355.20;;;;;;5029188;28;20381;-55
2023/06/02 00:26:53;;;;;;;20.95;14.95;;;435.50;2355.20;;;;;;5029110;28;20033;-54
2023/06/02 00:29:19;;;;;;;19.08;14.38;;;435.40;2355.20;;;;;;5028938;28;20479;-54
2023/06/02 00:31:45;;;;;;;15.52;13.60;;;435.30;2355.20;;;;;;5028197;28;20077;-54
2023/06/02 00:34:11;;;;;;;22.35;15.57;;;435.30;2355.20;;;;;;5029081;28;20032;-53
2023/06/02 00:36:36;;;;;;;21.70;15.15;;;435.30;2355.20;;;;;;5028718;28;20037;-56
2023/06/02 00:39:03;;;;;;;18.17;13.65;;;435.30;2355.20;;;;;;5028624;28;20029;-54
2023/06/02 00:41:29;;;;;;;16.75;13.88;;;435.20;2355.20;;;;;;5028750;28;20476;-54
2023/06/02 00:43:55;;;;;;;17.45;13.88;;;435.20;2355.20;;;;;;5028493;28;20438;-54
2023/06/02 00:46:21;;;;;;;22.02;14.68;;;435.20;2073.60;;;;;;5028669;28;20068;-55
2023/06/02 00:48:50;;;;;;;26.00;13.52;;;435.30;2355.20;;;;;;5020688;28;20104;-57
2023/06/02 00:51:17;;;;;;;18.00;13.90;;;435.20;2355.20;;;;;;5024122;28;20025;-54
2023/06/02 00:53:44;;;;;;;16.02;13.00;;;435.30;2355.20;;;;;;5028306;28;20029;-53
2023/06/02 00:56:14;;;;;;;16.80;13.32;;;435.30;2355.20;;;;;;5028461;28;20112;-56
2023/06/02 00:58:44;;;;;;;16.27;12.27;;;435.40;2355.20;;;;;;5028292;28;20513;-54
2023/06/02 01:01:10;;;;;;;15.68;11.65;;;435.40;2355.20;;;;;;5028484;28;20087;-54
2023/06/02 01:03:42;;;;;;;16.95;12.80;;;435.50;2355.20;;;;;;5027827;28;20034;-54
2023/06/02 01:06:09;;;;;;;14.50;12.05;;;435.50;2355.20;;;;;;5031267;28;20044;-54
2023/06/02 01:08:37;;;;;;;15.55;11.48;;;435.50;2355.20;;;;;;5032249;28;20072;-56
2023/06/02 01:11:05;;;;;;;15.82;12.02;;;435.40;2355.20;;;;;;5032505;28;20021;-54
2023/06/02 01:13:31;;;;;;;18.02;13.48;;;435.40;2355.20;;;;;;5032246;28;20084;-56
2023/06/02 01:15:57;;;;;;;14.73;11.80;;;435.50;2227.20;;;;;;5032195;28;20495;-54
2023/06/02 01:18:25;;;;;;;16.38;13.18;;;435.50;2355.20;;;;;;5031528;28;20041;-55
2023/06/02 01:20:57;;;;;;;16.45;11.88;;;435.50;2073.60;;;;;;5032393;28;20028;-55
2023/06/02 01:23:36;;;;;;;17.10;12.63;;;435.40;2355.20;;;;;;5032265;28;20069;-54
2023/06/02 01:26:05;;;;;;;16.02;12.20;;;435.40;2355.20;;;;;;5032143;28;20049;-56
2023/06/02 01:28:31;;;;;;;14.90;12.90;;;435.40;2355.20;;;;;;5032014;28;20475;-53
2023/06/02 01:31:16;;;;;;;15.85;12.00;;;435.40;2355.20;;;;;;5032048;28;20025;-53
2023/06/02 01:33:50;;;;;;;15.02;11.73;;;435.40;2355.20;;;;;;5032129;28;20029;-53
2023/06/02 01:36:20;;;;;;;;;;;435.60;2355.20;;;;;;5032065;28;20038;-55
2023/06/02 01:38:48;;;;;;;13.60;10.75;;;435.60;2355.20;;;;;;5023986;28;19913;-54
2023/06/02 01:41:16;;;;;;;13.15;10.98;;;435.60;2355.20;;;;;;5012088;28;20045;-53
2023/06/02 01:43:42;;;;;;;15.77;12.02;;;435.70;2355.20;;;;;;5012065;28;20022;-55
2023/06/02 01:46:10;;;;;;;16.67;11.73;;;435.80;2355.20;;;;;;5011694;28;20029;-53
2023/06/02 01:48:35;;;;;;;17.73;11.93;;;435.80;2355.20;;;;;;5018541;28;20092;-53
2023/06/02 01:51:02;;;;;;;16.25;12.38;;;435.80;2355.20;;;;;;5018760;28;20109;-53
2023/06/02 01:53:27;;;;;;;16.67;11.73;;;435.80;2355.20;;;;;;5024100;28;20029;-53
2023/06/02 01:55:54;;;;;;;16.85;11.57;;;435.70;2355.20;;;;;;5011989;28;20022;-53
2023/06/02 01:58:20;;;;;;;17.40;12.18;;;435.80;2355.20;;;;;;5011825;28;20037;-54
2023/06/02 02:00:46;;;;;;;16.63;12.43;;;435.80;2355.20;;;;;;5011767;28;20088;-54
2023/06/02 02:03:14;;;;;;;13.82;12.15;;;435.90;2355.20;;;;;;5011997;28;20468;-54
2023/06/02 02:05:40;;;;;;;16.30;12.65;;;435.90;2355.20;;;;;;5013687;28;20025;-55
2023/06/02 02:08:06;;;;;;;16.58;11.73;;;436.00;2355.20;;;;;;5022030;28;20049;-54
2023/06/02 02:10:31;;;;;;;14.10;11.10;;;436.00;2355.20;;;;;;5011272;28;20029;-57
2023/06/02 02:12:57;;;;;;;18.50;12.55;;;436.00;2355.20;;;;;;5011488;28;20104;-54
2023/06/02 02:15:23;;;;;;;18.10;11.55;;;435.90;2355.20;;;;;;5014223;28;20041;-56
2023/06/02 02:17:49;;;;;;;14.20;11.13;;;436.00;2355.20;;;;;;5011248;28;20053;-53
2023/06/02 02:20:18;;;;;;;15.85;12.43;;;436.00;2355.20;;;;;;5011214;28;20022;-55
2023/06/02 02:22:47;;;;;;;12.20;10.75;;;436.00;2355.20;;;;;;5010989;28;20029;-59
2023/06/02 02:25:14;;;;;;;14.85;11.35;;;435.90;2355.20;;;;;;5011409;28;20083;-54
2023/06/02 02:27:40;;;;;;;16.80;11.43;;;435.90;2355.20;;;;;;5011296;28;20100;-56
2023/06/02 02:30:07;;;;;;;14.27;11.68;;;435.90;2355.20;;;;;;5011257;28;20029;-54
2023/06/02 02:32:36;;;;;;;16.85;12.30;;;435.90;2355.20;;;;;;5014030;28;20021;-55
2023/06/02 02:35:03;;;;;;;16.85;12.75;;;435.80;2355.20;;;;;;5023942;28;20053;-55
2023/06/02 02:37:28;;;;;;;13.75;12.13;;;435.60;2355.20;;;;;;5010949;28;20060;-54
2023/06/02 02:39:54;;;;;;;16.88;13.10;;;435.50;2355.20;;;;;;5010642;28;20073;-54
2023/06/02 02:42:20;;;;;;;12.98;11.20;;;435.50;2355.20;;;;;;5023857;28;20526;-55
2023/06/02 02:44:46;;;;;;;14.40;12.52;;;435.50;2355.20;;;;;;5030464;28;20022;-56
2023/06/02 02:47:12;;;;;;;18.42;12.45;;;435.60;2355.20;;;;;;5031019;28;20056;-53
2023/06/02 02:49:38;;;;;;;19.83;13.02;;;435.60;2355.20;;;;;;5030390;28;20053;-52
2023/06/02 02:52:04;;;;;;;14.35;11.68;;;435.50;2278.40;;;;;;5030784;28;20648;-53
2023/06/02 02:54:29;;;;;;;18.65;13.25;;;435.60;2355.20;;;;;;5030297;28;20136;-54
2023/06/02 02:56:55;;;;;;;16.02;11.70;;;435.60;2355.20;;;;;;5030708;28;20079;-54
2023/06/02 02:59:21;;;;;;;15.45;12.65;;;435.60;2355.20;;;;;;5030379;28;20367;-56
2023/06/02 03:01:47;;;;;;;16.40;11.90;;;435.70;2355.20;;;;;;5030310;28;20383;-54
2023/06/02 03:04:18;;;;;;;13.45;11.75;;;435.80;2355.20;;;;;;5030185;28;20416;-55
2023/06/02 03:06:45;;;;;;;23.77;13.43;;;435.90;2355.20;;;;;;5028997;28;20475;-54
2023/06/02 03:09:12;;;;;;;13.25;11.55;;;435.90;2355.20;;;;;;5028874;28;20478;-51
2023/06/02 03:11:37;;;;;;;13.70;12.25;;;435.90;2355.20;;;;;;5029889;28;20033;-55
2023/06/02 03:14:03;;;;;;;15.00;12.32;;;435.90;2355.20;;;;;;5029867;28;20023;-54
2023/06/02 03:16:29;;;;;;;16.48;11.85;;;435.80;2355.20;;;;;;5030350;28;20072;-55
2023/06/02 03:18:56;;;;;;;15.82;11.60;;;435.60;2329.60;;;;;;5029955;28;20040;-58
2023/06/02 03:21:22;;;;;;;15.25;12.02;;;435.60;2355.20;;;;;;5030387;28;20095;-57
2023/06/02 03:23:49;;;;;;;16.00;12.10;;;435.40;2355.20;;;;;;5029430;28;20491;-54
2023/06/02 03:26:15;;;;;;;15.98;12.63;;;435.40;2355.20;;;;;;5029733;28;20033;-54
2023/06/02 03:28:42;;;;;;;17.55;12.23;;;435.50;2227.20;;;;;;5029070;28;20060;-58
2023/06/02 03:31:09;;;;;;;19.13;14.15;;;435.40;2355.20;;;;;;5029659;28;20025;-53
2023/06/02 03:33:35;;;;;;;20.60;14.23;;;435.30;2355.20;;;;;;5029740;28;20068;-56
2023/06/02 03:36:01;;;;;;;19.63;12.93;;;435.30;2355.20;;;;;;5029928;28;20041;-53
2023/06/02 03:38:27;;;;;;;15.95;13.23;;;435.30;2355.20;;;;;;5029313;28;20127;-54
2023/06/02 03:40:52;;;;;;;16.05;13.15;;;435.20;2355.20;;;;;;5029291;28;20041;-56
2023/06/02 03:43:18;;;;;;;18.65;13.60;;;435.30;2355.20;;;;;;5029304;28;20030;-53
2023/06/02 03:45:45;;;;;;;20.50;13.65;;;435.40;2355.20;;;;;;5029546;28;20073;-53
2023/06/02 03:48:11;;;;;;;16.30;12.77;;;435.60;2355.20;;;;;;5029691;28;20048;-54
2023/06/02 03:50:38;;;;;;;20.35;12.85;;;435.70;2355.20;;;;;;5029409;28;20022;-53
2023/06/02 03:53:05;;;;;;;17.40;12.00;;;435.80;2355.20;;;;;;5029651;28;20022;-54
2023/06/02 03:55:31;;;;;;;18.55;12.18;;;435.90;2355.20;;;;;;5029310;28;20224;-54
2023/06/02 03:57:57;;;;;;;14.90;11.63;;;436.10;2355.20;;;;;;5029271;28;20547;-54
2023/06/02 04:00:22;;;;;;;15.88;13.07;;;460.80;2380.80;;;;;;5029815;28;20056;-57
2023/06/02 04:02:48;;;;;;;15.98;11.95;;;461.00;2380.80;;;;;;5029196;28;20383;-56
2023/06/02 04:05:14;;;;;;;14.25;11.57;;;461.00;2380.80;;;;;;5029614;28;20018;-55
2023/06/02 04:07:41;;;;;;;16.27;12.27;;;461.10;2380.80;;;;;;5029143;28;20042;-53
2023/06/02 04:10:07;;;;;;;15.38;12.57;;;461.20;2380.80;;;;;;5029170;28;20025;-54
2023/06/02 04:12:32;;;;;;;12.07;10.77;;;461.30;2380.80;;;;;;5029148;28;20496;-55
2023/06/02 04:14:59;;;;;;;16.08;12.60;;;461.40;2380.80;;;;;;5029314;28;20017;-58
2023/06/02 04:17:25;;;;;;;16.20;11.65;;;461.50;2380.80;;;;;;5028984;28;20032;-54
2023/06/02 04:19:52;;;;;;;17.13;11.85;;;461.50;2380.80;;;;;;5029292;28;20048;-53
2023/06/02 04:22:19;;;;;;;13.88;11.20;;;461.60;2380.80;;;;;;5028963;28;20498;-61
2023/06/02 04:24:46;;;;;;;13.82;11.55;;;461.60;2380.80;;;;;;5028585;28;20056;-54
2023/06/02 04:27:14;;;;;;;15.25;12.38;;;461.60;2380.80;;;;;;5029154;28;20045;-61
2023/06/02 04:29:41;;;;;;;13.27;10.50;;;461.60;2380.80;;;;;;5029256;28;20379;-59
2023/06/02 04:32:07;;;;;;;18.08;11.13;;;461.60;2380.80;;;;;;5028624;28;20547;-58
2023/06/02 04:34:32;;;;;;;19.52;11.75;;;461.70;2380.80;;;;;;5029188;28;20030;-53
2023/06/02 04:36:58;;;;;;;14.68;10.45;;;486.50;2380.80;;;;;;5028423;28;20388;-56
2023/06/02 04:39:24;;;;;;;14.30;11.07;;;486.50;2380.80;;;;;;5030533;28;20418;-54
2023/06/02 04:41:50;;;;;;;15.88;12.23;;;486.50;2380.80;;;;;;5033117;28;20108;-53
2023/06/02 04:44:18;;;;;;;17.58;10.98;;;486.50;2380.80;;;;;;5032679;28;20032;-57
2023/06/02 04:46:44;;;;;;;15.25;12.30;;;486.60;2380.80;;;;;;5032596;28;20049;-51
2023/06/02 04:49:10;;;;;;;16.33;11.35;;;486.60;2380.80;;;;;;5032882;28;20100;-53
2023/06/02 04:51:37;;;;;;;13.85;11.63;;;486.80;2380.80;;;;;;5031198;28;20116;-54
2023/06/02 04:54:03;;;;;;;12.90;11.48;;;486.80;2380.80;;;;;;5032496;28;20017;-56
2023/06/02 04:56:30;;;;;;;13.52;10.65;;;487.00;2380.80;;;;;;5032593;28;20053;-54
2023/06/02 04:58:56;;;;;;;18.92;12.90;;;487.10;2380.80;;;;;;5032646;28;20065;-56
2023/06/02 05:01:22;;;;;;;20.58;11.40;;;512.00;2380.80;;;;;;5032477;28;20084;-55
2023/06/02 05:03:47;;;;;;;18.10;12.18;;;512.20;2380.80;;;;;;5032075;28;20025;-54
2023/06/02 05:06:13;;;;;;;12.55;9.88;;;512.30;2380.80;;;;;;5032447;28;20026;-54
2023/06/02 05:08:39;;;;;;;13.48;10.23;;;512.20;2380.80;;;;;;5032151;28;20033;-62
2023/06/02 05:11:05;;;;;;;16.55;12.18;;;512.30;2380.80;;;;;;5030264;28;20029;-55
2023/06/02 05:13:31;;;;;;;17.02;11.90;;;512.20;2380.80;;;;;;5026959;28;20026;-52
2023/06/02 05:15:57;;;;;;;15.63;11.20;;;512.10;2380.80;;;;;;5024769;28;20028;-54
2023/06/02 05:18:23;;;;;;;13.70;11.25;;;512.20;2380.80;;;;;;5032823;28;20039;-56
2023/06/02 05:20:51;;;;;;;14.20;11.23;;;512.40;2380.80;;;;;;5032196;28;20029;-58
2023/06/02 05:23:17;;;;;;;13.05;10.80;;;512.60;2380.80;;;;;;5031981;28;20079;-57
2023/06/02 05:25:43;;;;;;;16.88;11.77;;;537.60;2406.40;;;;;;5032070;28;20369;-58
2023/06/02 05:28:08;;;;;;;14.15;11.40;;;537.70;2406.40;;;;;;5015946;28;20495;-54
2023/06/02 05:30:37;;;;;;;13.93;10.10;;;538.00;2406.40;;;;;;5032270;28;20061;-53
2023/06/02 05:33:03;;;;;;;15.38;10.23;;;538.00;2406.40;;;;;;5032028;28;20037;-53
2023/06/02 05:35:28;;;;;;;16.73;10.48;;;538.00;2406.40;;;;;;5031923;28;20430;-54
2023/06/02 05:37:54;;;;;;;13.90;11.05;;;538.20;2406.40;;;;;;5032247;28;20070;-53
2023/06/02 05:40:20;;;;;;;15.95;10.68;;;538.30;2406.40;;;;;;5031586;28;20380;-55
2023/06/02 05:42:46;;;;;;;14.25;11.02;;;538.50;2406.40;;;;;;5031022;28;20140;-55
2023/06/02 05:45:11;;;;;;;13.57;10.88;;;538.50;2406.40;;;;;;5032169;28;20049;-52
2023/06/02 05:47:37;;;;;;;13.68;11.20;;;538.40;2406.40;;;;;;5031546;28;20108;-54
2023/06/02 05:50:03;;;;;;;16.48;12.30;;;563.20;2432.00;;;;;;5031542;28;20379;-54
2023/06/02 05:52:29;;;;;;;17.05;12.57;;;563.40;2432.00;;;;;;5031294;28;20434;-56
2023/06/02 05:54:55;;;;;;;17.27;13.02;;;563.60;2432.00;;;;;;5018277;28;20029;-55
2023/06/02 05:57:21;;;;;;;14.35;11.25;;;563.70;2432.00;;;;;;5031397;28;20807;-55
2023/06/02 05:59:46;;;;;;;16.35;12.40;;;563.80;2432.00;;;;;;5031502;28;20064;-53
2023/06/02 06:02:12;;;;;;;13.13;11.27;;;563.90;2432.00;;;;;;5031555;28;20383;-54
2023/06/02 06:04:38;;;;;;;13.10;11.18;;;564.00;2432.00;;;;;;5025829;28;20030;-54
2023/06/02 06:07:04;;;;;;;17.70;12.77;;;588.80;2432.00;;;;;;5030390;28;20048;-54
2023/06/02 06:09:30;;;;;;;15.38;11.18;;;588.80;2432.00;;;;;;5031174;28;20029;-53
2023/06/02 06:11:56;;;;;;;15.85;11.88;;;564.10;2432.00;;;;;;5031133;28;20030;-54
2023/06/02 06:14:21;;;;;;;15.57;11.82;;;588.80;2432.00;;;;;;5030622;28;20026;-59
2023/06/02 06:16:47;;;;;;;14.75;11.55;;;589.00;2432.00;;;;;;5030041;28;20034;-52
2023/06/02 06:19:13;;;;;;;15.18;12.13;;;589.00;2432.00;;;;;;5031223;28;20031;-66
2023/06/02 06:21:39;;;;;;;13.02;11.70;;;589.00;2432.00;;;;;;5030856;28;20025;-53
2023/06/02 06:24:08;;;;;;;16.30;11.60;;;588.90;2432.00;;;;;;5030129;28;20035;-57
2023/06/02 06:26:34;;;;;;;14.15;10.85;;;589.00;2432.00;;;;;;5030477;28;20071;-53
2023/06/02 06:29:00;;;;;;;15.93;12.38;;;588.90;2432.00;;;;;;5031200;28;20025;-53
2023/06/02 06:31:25;;;;;;;14.48;11.75;;;588.90;2432.00;;;;;;5017750;28;20563;-53
2023/06/02 06:33:52;;;;;;;12.20;10.60;;;589.00;2432.00;;;;;;5031271;28;20025;-55
2023/06/02 06:36:17;;;;;;;14.88;12.05;;;589.20;2432.00;;;;;;5030620;28;20048;-54
2023/06/02 06:38:43;;;;;;;13.45;11.70;;;589.30;2432.00;;;;;;5031172;28;20057;-54
2023/06/02 06:41:09;;;;;;;14.60;11.60;;;589.40;2432.00;;;;;;5029742;28;20399;-63
2023/06/02 06:43:35;;;;;;;18.75;12.02;;;589.70;2432.00;;;;;;5029850;28;20029;-54
2023/06/02 06:46:01;;;;;;;13.57;10.80;;;614.50;2432.00;;;;;;5030756;28;20136;-61
2023/06/02 06:48:27;;;;;;;13.35;11.00;;;614.70;2432.00;;;;;;5030784;28;20075;-53
2023/06/02 06:50:53;;;;;;;12.07;10.57;;;614.90;2432.00;;;;;;5031275;28;20041;-53
2023/06/02 06:53:19;;;;;;;13.32;11.93;;;615.00;2432.00;;;;;;5030597;28;20025;-53
2023/06/02 06:55:45;;;;;;;13.65;12.25;;;615.10;2432.00;;;;;;5029932;28;20053;-54
2023/06/02 06:58:11;;;;;;;14.73;11.65;;;615.10;2432.00;;;;;;5030455;28;20099;-54
2023/06/02 07:00:38;;;;;;;15.23;13.13;;;615.20;2432.00;;;;;;5030424;28;20479;-53
2023/06/02 07:03:04;;;;;;;15.52;12.60;;;640.00;2432.00;;;;;;5029029;28;20052;-53
2023/06/02 07:05:30;;;;;;;13.32;12.00;;;640.20;2432.00;;;;;;5029800;28;20113;-56
2023/06/02 07:07:56;;;;;;;14.27;12.48;;;640.20;2432.00;;;;;;5030490;28;20081;-52
2023/06/02 07:10:22;;;;;;;14.25;12.82;;;640.40;2432.00;;;;;;5019728;28;20025;-51
2023/06/02 07:12:48;;;;;;;15.77;14.18;;;640.50;2432.00;;;;;;5029710;28;20087;-52
2023/06/02 07:15:14;;;;;;;16.13;14.35;;;640.30;2432.00;;;;;;5030222;28;20083;-61
2023/06/02 07:17:41;;;;;;;15.07;13.38;;;640.50;2432.00;;;;;;5030217;28;20052;-52
2023/06/02 07:20:11;;;;;;;14.65;13.25;;;640.70;2432.00;;;;;;5029613;28;20025;-61
2023/06/02 07:22:38;;;;;;;15.38;13.98;;;640.60;2432.00;;;;;;5029555;28;20033;-53
2023/06/02 07:25:04;;;;;;;15.27;13.77;;;640.90;2432.00;;;;;;5030179;28;20376;-54
2023/06/02 07:27:31;;;;;;;16.90;15.20;;;665.60;2432.00;;;;;;5028918;28;20041;-54
2023/06/02 07:29:58;;;;;;;15.15;13.75;;;666.00;2432.00;;;;;;5029718;28;20037;-63
2023/06/02 07:32:23;;;;;;;17.00;15.30;;;666.40;2432.00;;;;;;5029962;28;20037;-54
2023/06/02 07:34:49;;;;;;;23.23;15.52;;;666.50;2432.00;;;;;;5029962;28;20018;-63
2023/06/02 07:37:15;;;;;;;17.05;15.40;;;666.50;2432.00;;;;;;5029168;28;20021;-53
2023/06/02 07:39:41;;;;;;;18.65;15.60;;;691.50;2432.00;;;;;;5029395;28;20053;-53
2023/06/02 07:42:07;;;;;;;18.13;16.23;;;691.60;2432.00;;;;;;5029298;28;20025;-53
2023/06/02 07:44:33;;;;;;;17.60;15.82;;;691.90;2432.00;;;;;;5029734;28;20018;-54
2023/06/02 07:46:59;;;;;;;16.98;14.95;;;716.90;2432.00;;;;;;5029346;28;20044;-55
2023/06/02 07:49:25;;;;;;;17.45;15.65;;;717.30;2432.00;;;;;;5029600;28;20068;-54
2023/06/02 07:51:51;;;;;;;17.05;15.45;;;743.10;2329.60;;;;;;5029736;28;20403;-54
2023/06/02 07:54:16;;;;;;;16.35;14.77;;;768.40;2201.60;;;;;;5029092;28;20022;-57
2023/06/02 07:56:42;;;;;;;16.05;14.65;;;768.80;2176.00;;;;;;5029610;28;20112;-60
2023/06/02 07:59:11;;;;;;;16.42;14.82;;;768.80;2124.80;;;;;;5028531;28;20030;-55
2023/06/02 08:01:38;;;;;;;14.98;13.55;;;768.70;2099.20;;;;;;5029150;28;20105;-54
2023/06/02 08:04:04;;;;;;;14.63;13.32;;;793.60;2124.80;;;;;;5029825;28;20443;-58
2023/06/02 08:06:30;;;;;;;15.93;14.32;;;768.90;2048.00;;;;;;5028908;28;20082;-54
2023/06/02 08:08:55;;;;;;;15.00;13.70;;;768.60;2022.40;;;;;;5029662;28;20116;-54
2023/06/02 08:11:22;;;;;;;18.45;14.82;;;768.60;2048.00;;;;;;5028943;28;20487;-60
2023/06/02 08:13:48;;;;;;;17.15;15.55;;;768.60;2048.00;;;;;;5028704;28;20566;-59
2023/06/02 08:16:14;;;;;;;15.50;14.00;;;768.70;2022.40;;;;;;5028759;28;20108;-54
2023/06/02 08:18:40;;;;;;;17.27;15.77;;;768.60;2022.40;;;;;;5029158;28;20113;-64
2023/06/02 08:21:06;;;;;;;17.20;15.50;;;768.40;2048.00;;;;;;5028726;28;20025;-54
2023/06/02 08:23:32;;;;;;;17.20;15.60;;;768.70;2022.40;;;;;;5029122;28;20074;-55
2023/06/02 08:25:58;;;;;;;17.67;15.98;;;768.60;2099.20;;;;;;5029217;28;20026;-54
2023/06/02 08:28:25;;;;;;;16.42;14.80;;;768.60;2099.20;;;;;;5028210;28;20041;-54
2023/06/02 08:30:51;;;;;;;17.38;15.32;;;768.20;2073.60;;;;;;5029210;28;20037;-53
2023/06/02 08:33:18;;;;;;;18.23;16.63;;;743.10;2124.80;;;;;;5028944;28;20025;-54
2023/06/02 08:35:44;;;;;;;18.55;16.83;;;743.10;2124.80;;;;;;5029079;28;20048;-54
2023/06/02 08:38:14;;;;;;;18.33;16.63;;;743.20;2124.80;;;;;;5028999;28;20075;-54
2023/06/02 08:40:40;;;;;;;17.65;15.95;;;743.10;2150.40;;;;;;5015580;28;20057;-64
2023/06/02 08:43:08;;;;;;;20.08;18.08;;;743.00;2150.40;;;;;;5028357;28;20053;-60
2023/06/02 08:45:35;;;;;;;18.83;17.02;;;742.90;2124.80;;;;;;5028707;28;20060;-61
2023/06/02 08:48:05;;;;;;;19.83;17.85;;;742.60;2150.40;;;;;;5028935;28;20360;-54
2023/06/02 08:50:33;;;;;;;19.65;17.02;;;742.60;2201.60;;;;;;5028870;28;20017;-65
2023/06/02 08:53:03;;;;;;;17.50;15.82;;;742.40;2201.60;;;;;;5028855;28;20021;-55
2023/06/02 08:55:29;;;;;;;16.05;14.45;;;717.70;2150.40;;;;;;5015782;28;20017;-54
2023/06/02 08:57:55;;;;;;;16.65;15.02;;;742.40;2124.80;;;;;;5028388;28;20064;-55
2023/06/02 09:00:21;;;;;;;16.77;15.05;;;742.50;2124.80;;;;;;5028801;28;20069;-54
2023/06/02 09:02:50;;;;;;;16.52;14.93;;;742.50;2124.80;;;;;;5028573;28;20021;-55
2023/06/02 09:05:16;;;;;;;16.98;15.23;;;742.70;2124.80;;;;;;5028882;28;20026;-54
2023/06/02 09:07:47;;;;;;;18.02;15.20;;;742.60;2150.40;;;;;;5028554;28;20037;-55
2023/06/02 09:10:30;;;;;;;14.80;13.50;;;742.90;2124.80;;;;;;5028752;28;20030;-55
2023/06/02 09:12:56;;;;;;;16.17;14.63;;;743.00;2150.40;;;;;;5017162;28;20075;-54
2023/06/02 09:15:23;;;;;;;15.38;13.75;;;742.40;2099.20;;;;;;5028781;28;20120;-54
2023/06/02 09:17:49;;;;;;;13.82;12.57;;;717.60;2073.60;;;;;;5028370;28;20033;-54
2023/06/02 09:20:15;;;;;;;13.35;11.98;;;717.20;2073.60;;;;;;5028399;28;20148;-55
2023/06/02 09:22:55;;;;;;;14.77;11.10;;;716.80;2048.00;;;;;;5028598;28;20128;-54
2023/06/02 09:25:25;;;;;;;14.68;13.18;;;717.10;2048.00;;;;;;5028614;28;20025;-54
2023/06/02 09:27:56;;;;;;;13.95;12.55;;;717.20;2150.40;;;;;;5032324;28;20041;-65
2023/06/02 09:30:22;;;;;;;12.90;11.60;;;717.30;2099.20;;;;;;5032499;28;20018;-61
2023/06/02 09:33:00;;;;;;;12.98;11.20;;;717.60;2073.60;;;;;;5032016;28;20036;-54
2023/06/02 09:35:35;;;;;;;13.85;12.35;;;717.40;2073.60;;;;;;5031947;28;20533;-55
2023/06/02 09:38:07;;;;;;;14.57;13.07;;;717.60;2073.60;;;;;;5032016;28;20155;-54
2023/06/02 09:40:34;;;;;;;14.15;12.85;;;717.60;2073.60;;;;;;5032121;28;20415;-54
2023/06/02 09:43:08;;;;;;;15.07;13.68;;;717.70;2048.00;;;;;;5031545;28;20096;-55
2023/06/02 09:46:00;;;;;;;15.98;14.45;;;717.50;2124.80;;;;;;5031981;28;20022;-54
2023/06/02 09:48:27;;;;;;;17.15;15.60;;;717.00;2099.20;;;;;;5032028;28;20099;-55
2023/06/02 09:50:53;;;;;;;18.52;16.83;;;717.10;2176.00;;;;;;5032027;28;20029;-54
2023/06/02 09:53:22;;;;;;;16.55;14.85;;;716.90;2150.40;;;;;;5031929;28;20075;-54
2023/06/02 09:55:48;;;;;;;16.73;14.98;;;716.90;2150.40;;;;;;5031543;28;20026;-55
2023/06/02 09:58:14;;;;;;;16.65;14.90;;;716.80;2150.40;;;;;;5031464;28;20037;-54
2023/06/02 10:00:41;;;;;;;17.98;16.25;;;716.80;2150.40;;;;;;5031742;28;20021;-57
2023/06/02 10:03:07;;;;;;;19.05;15.82;;;716.90;2176.00;;;;;;5031679;28;20375;-54
2023/06/02 10:05:33;;;;;;;18.98;15.05;;;692.10;2176.00;;;;;;5031424;28;20118;-55
2023/06/02 10:08:29;;;;;;;17.00;15.27;;;716.80;2252.80;;;;;;5031364;28;20506;-54
2023/06/02 10:11:21;;;;;;;15.90;14.50;;;716.90;2150.40;;;;;;5031473;28;20029;-54
2023/06/02 10:14:01;;;;;;;14.57;13.07;;;717.10;2201.60;;;;;;5030861;28;20067;-55
2023/06/02 10:16:51;;;;;;;15.23;13.73;;;692.10;2073.60;;;;;;5031362;28;20480;-54
2023/06/02 10:19:29;;;;;;;15.38;13.68;;;692.00;2073.60;;;;;;5031255;28;20072;-55
2023/06/02 10:22:24;;;;;;;13.00;11.80;;;717.20;2124.80;;;;;;5031098;28;20075;-55
2023/06/02 10:25:01;;;;;;;13.75;12.40;;;717.40;2048.00;;;;;;5031134;28;20164;-63
2023/06/02 10:27:30;;;;;;;16.77;14.50;;;717.60;2073.60;;;;;;5030861;28;20041;-64
2023/06/02 10:29:56;;;;;;;13.13;11.75;;;717.70;2099.20;;;;;;5031051;28;20467;-64
2023/06/02 10:32:27;;;;;;;13.57;12.25;;;717.40;2022.40;;;;;;5031229;28;20030;-64
2023/06/02 10:34:53;;;;;;;14.93;13.52;;;717.70;2022.40;;;;;;5031017;28;20028;-54
2023/06/02 10:37:21;;;;;;;13.55;12.27;;;717.60;1996.80;;;;;;5030659;28;20033;-54
2023/06/02 10:39:48;;;;;;;13.85;12.43;;;717.70;1971.20;;;;;;5030341;28;20049;-54
2023/06/02 10:42:15;;;;;;;17.83;14.30;;;717.70;1945.60;;;;;;5030993;28;20029;-55
2023/06/02 10:44:41;;;;;;;15.57;14.02;;;717.60;1996.80;;;;;;5030736;28;20025;-60
2023/06/02 10:47:33;;;;;;;16.92;15.02;;;717.50;2022.40;;;;;;5029201;28;20140;-57
2023/06/02 10:50:00;;;;;;;14.95;13.27;;;717.40;2022.40;;;;;;5030252;28;20056;-55
2023/06/02 10:52:27;;;;;;;15.43;13.93;;;717.20;2022.40;;;;;;5030530;28;20039;-54
2023/06/02 10:55:08;;;;;;;15.35;13.75;;;717.10;2124.80;;;;;;5030859;28;20034;-55
2023/06/02 10:57:53;;;;;;;16.10;14.32;;;717.10;2124.80;;;;;;5030283;28;20041;-55
2023/06/02 11:00:39;;;;;;;15.93;14.30;;;717.00;2176.00;;;;;;5030357;28;20502;-54
2023/06/02 11:03:22;;;;;;;16.50;14.77;;;716.80;2176.00;;;;;;5030804;28;20419;-54
2023/06/02 11:05:49;;;;;;;14.75;13.30;;;716.80;2201.60;;;;;;5030156;28;20483;-64
2023/06/02 11:08:18;;;;;;;15.05;13.65;;;716.80;2201.60;;;;;;5030519;28;20080;-54
2023/06/02 11:10:58;;;;;;;16.02;14.32;;;716.80;2176.00;;;;;;5030361;28;20026;-55
2023/06/02 11:13:27;;;;;;;15.85;14.27;;;692.10;2176.00;;;;;;5029831;28;20029;-57
2023/06/02 11:15:59;;;;;;;19.45;14.85;;;716.80;2227.20;;;;;;5017356;28;20033;-54
2023/06/02 11:18:33;;;;;;;16.92;15.23;;;716.80;2201.60;;;;;;5029957;28;20035;-55
2023/06/02 11:21:15;;;;;;;18.20;16.35;;;692.10;2176.00;;;;;;5030039;28;20112;-63
2023/06/02 11:23:43;;;;;;;16.95;14.32;;;692.10;2176.00;;;;;;5030194;28;20032;-54
2023/06/02 11:26:19;;;;;;;16.88;15.07;;;691.80;2150.40;;;;;;5029436;28;20040;-54
2023/06/02 11:28:45;;;;;;;15.18;13.73;;;692.00;2227.20;;;;;;5029447;28;20033;-55
2023/06/02 11:31:15;;;;;;;15.85;14.30;;;692.10;2252.80;;;;;;5029621;28;20021;-54
2023/06/02 11:33:48;;;;;;;17.17;15.40;;;716.80;2252.80;;;;;;5030027;28;20072;-53
2023/06/02 11:36:25;;;;;;;16.73;15.13;;;716.80;2304.00;;;;;;5029891;28;20029;-63
2023/06/02 11:38:50;;;;;;;18.10;13.82;;;692.10;2304.00;;;;;;5029931;28;20360;-55
2023/06/02 11:41:21;;;;;;;13.32;12.10;;;692.00;2201.60;;;;;;5029110;28;20052;-63
2023/06/02 11:43:50;;;;;;;13.93;12.63;;;691.80;2150.40;;;;;;5029095;28;20060;-52
2023/06/02 11:46:19;;;;;;;14.60;13.18;;;692.00;2176.00;;;;;;5029911;28;20103;-53
2023/06/02 11:48:46;;;;;;;14.10;12.70;;;716.80;2252.80;;;;;;5029228;28;20095;-59
2023/06/02 11:51:16;;;;;;;12.32;11.23;;;717.10;2124.80;;;;;;5029763;28;20526;-53
2023/06/02 11:53:45;;;;;;;10.10;9.10;;;692.10;2022.40;;;;;;5029376;28;20033;-52
2023/06/02 11:56:15;;;;;;;9.70;8.48;;;717.20;2022.40;;;;;;5029360;28;20028;-55
2023/06/02 11:58:45;;;;;;;10.45;9.43;;;742.40;1971.20;;;;;;5029492;28;20021;-53
2023/06/02 12:01:14;;;;;;;12.75;10.70;;;742.60;1971.20;;;;;;5029475;28;20021;-54
2023/06/02 12:03:40;;;;;;;11.98;10.35;;;742.80;2073.60;;;;;;5029121;28;20475;-54